createdAt,value
2018-12-17T00:04:59.719Z,-0.95
2018-12-17T00:10:04.875Z,-0.89
2018-12-17T00:15:08.528Z,-0.86
2018-12-17T00:20:11.915Z,-0.84
2018-12-17T00:25:15.513Z,-0.79
2018-12-17T00:30:18.790Z,-0.84
2018-12-17T00:35:22.110Z,-0.85
2018-12-17T00:40:25.448Z,-0.87
2018-12-17T00:45:28.671Z,-0.81
2018-12-17T00:50:31.888Z,-0.81
2018-12-17T00:55:35.156Z,-0.79
2018-12-17T01:00:38.392Z,-0.80
2018-12-17T01:05:41.550Z,-0.76
2018-12-17T01:10:44.834Z,-0.82
2018-12-17T01:15:48.064Z,-0.72
2018-12-17T01:20:51.845Z,-0.74
2018-12-17T01:25:55.157Z,-0.79
2018-12-17T01:30:58.376Z,-0.78
2018-12-17T01:36:01.785Z,-0.77
2018-12-17T01:41:05.588Z,-0.80
2018-12-17T01:46:08.837Z,-0.87
2018-12-17T01:51:12.022Z,-1.01
2018-12-17T01:56:15.399Z,-1.22
2018-12-17T02:01:18.627Z,-1.36
2018-12-17T02:06:21.858Z,-1.47
2018-12-17T02:11:25.154Z,-1.33
2018-12-17T02:16:28.818Z,-1.13
2018-12-17T02:21:32.060Z,-1.20
2018-12-17T02:26:35.583Z,-1.13
2018-12-17T02:31:38.771Z,-1.07
2018-12-17T02:36:42.386Z,-0.95
2018-12-17T02:41:45.683Z,-1.04
2018-12-17T02:46:49.000Z,-1.21
2018-12-17T02:51:52.261Z,-1.35
2018-12-17T02:56:57.862Z,-1.17
2018-12-17T03:02:01.579Z,-1.10
2018-12-17T03:07:04.865Z,-1.11
2018-12-17T03:12:08.170Z,-1.02
2018-12-17T03:17:11.597Z,-1.04
2018-12-17T03:22:14.893Z,-1.00
2018-12-17T03:27:18.176Z,-0.94
2018-12-17T03:32:21.806Z,-0.92
2018-12-17T03:37:25.350Z,-0.95
2018-12-17T03:42:28.607Z,-0.93
2018-12-17T03:47:31.931Z,-0.83
2018-12-17T03:52:35.174Z,-0.82
2018-12-17T03:57:38.538Z,-0.83
2018-12-17T04:02:41.795Z,-0.84
2018-12-17T04:07:45.658Z,-0.89
2018-12-17T04:12:49.020Z,-0.91
2018-12-17T04:17:52.290Z,-0.91
2018-12-17T04:22:55.471Z,-0.89
2018-12-17T04:27:58.648Z,-0.76
2018-12-17T04:33:01.908Z,-0.76
2018-12-17T04:38:05.111Z,-0.79
2018-12-17T04:43:08.416Z,-0.77
2018-12-17T04:48:11.705Z,-0.75
2018-12-17T04:53:15.238Z,-0.61
2018-12-17T04:58:19.599Z,-0.68
2018-12-17T05:03:22.877Z,-0.66
2018-12-17T05:08:26.102Z,-0.56
2018-12-17T05:13:29.472Z,-0.66
2018-12-17T05:18:33.003Z,-0.65
2018-12-17T05:23:36.447Z,-0.69
2018-12-17T05:28:39.732Z,-0.66
2018-12-17T05:33:43.062Z,-0.71
2018-12-17T05:38:46.316Z,-0.73
2018-12-17T05:43:49.494Z,-0.70
2018-12-17T05:48:52.750Z,-0.66
2018-12-17T05:53:57.148Z,-0.71
2018-12-17T05:59:00.427Z,-0.68
2018-12-17T06:04:04.042Z,-0.68
2018-12-17T06:09:07.668Z,-0.64
2018-12-17T06:14:10.933Z,-0.70
2018-12-17T06:19:15.575Z,-0.70
2018-12-17T06:24:18.892Z,-0.72
2018-12-17T06:29:22.381Z,-0.69
2018-12-17T06:34:26.453Z,-0.68
2018-12-17T06:39:32.524Z,-0.64
2018-12-17T06:44:36.375Z,-0.64
2018-12-17T06:49:39.891Z,-0.61
2018-12-17T06:54:43.510Z,-0.59
2018-12-17T06:59:46.763Z,-0.59
2018-12-17T07:04:50.395Z,-0.61
2018-12-17T07:09:53.755Z,-0.54
2018-12-17T07:14:58.037Z,-0.50
2018-12-17T07:20:01.408Z,-0.44
2018-12-17T07:25:05.738Z,-0.43
2018-12-17T07:30:09.038Z,-0.37
2018-12-17T07:35:12.375Z,-0.28
2018-12-17T07:40:15.513Z,-0.28
2018-12-17T07:45:18.773Z,-0.20
2018-12-17T07:50:22.179Z,-0.15
2018-12-17T07:55:25.400Z,-0.08
2018-12-17T08:00:28.634Z,-0.02
2018-12-17T08:05:32.409Z,0.07
2018-12-17T08:10:35.631Z,0.25
2018-12-17T08:15:39.606Z,0.29
2018-12-17T08:20:42.905Z,0.35
2018-12-17T08:25:46.217Z,0.49
2018-12-17T08:30:49.405Z,0.61
2018-12-17T08:35:52.569Z,0.68
2018-12-17T08:40:56.228Z,0.77
2018-12-17T08:45:59.435Z,0.87
2018-12-17T08:51:02.696Z,1.03
2018-12-17T08:56:06.115Z,1.07
2018-12-17T09:01:09.251Z,1.07
2018-12-17T09:06:12.440Z,1.12
2018-12-17T09:11:15.592Z,1.18
2018-12-17T09:16:18.891Z,1.23
2018-12-17T09:21:22.107Z,1.25
2018-12-17T09:26:25.256Z,1.46
2018-12-17T09:31:28.487Z,1.58
2018-12-17T09:36:31.717Z,1.48
2018-12-17T09:41:35.047Z,1.48
2018-12-17T09:46:38.474Z,1.38
2018-12-17T09:51:41.660Z,1.45
2018-12-17T09:56:44.876Z,1.44
2018-12-17T10:01:48.108Z,1.63
2018-12-17T10:06:52.014Z,1.56
2018-12-17T10:11:55.833Z,1.57
2018-12-17T10:16:58.985Z,1.59
2018-12-17T10:22:02.102Z,1.72
2018-12-17T10:27:05.295Z,1.69
2018-12-17T10:32:08.561Z,1.82
2018-12-17T10:37:11.773Z,1.97
2018-12-17T10:42:15.199Z,2.12
2018-12-17T10:47:18.360Z,2.16
2018-12-17T10:52:22.555Z,2.26
2018-12-17T10:57:25.748Z,2.55
2018-12-17T11:02:28.999Z,2.53
2018-12-17T11:07:32.231Z,2.61
2018-12-17T11:12:35.614Z,2.61
2018-12-17T11:17:39.000Z,2.71
2018-12-17T11:22:42.461Z,2.84
2018-12-17T11:27:45.919Z,2.80
2018-12-17T11:32:49.188Z,2.87
2018-12-17T11:37:52.457Z,2.80
2018-12-17T11:42:55.737Z,2.87
2018-12-17T11:47:58.867Z,2.99
2018-12-17T11:53:02.136Z,2.97
2018-12-17T11:58:11.673Z,2.97
2018-12-17T12:03:16.161Z,2.69
2018-12-17T12:08:19.500Z,2.88
2018-12-17T12:13:23.004Z,2.92
2018-12-17T12:18:26.284Z,3.04
2018-12-17T12:23:29.805Z,2.90
2018-12-17T12:28:33.005Z,2.75
2018-12-17T12:33:36.233Z,2.75
2018-12-17T12:38:39.517Z,2.75
2018-12-17T12:43:42.876Z,2.80
2018-12-17T12:48:46.069Z,3.00
2018-12-17T12:53:49.275Z,3.12
2018-12-17T12:58:52.569Z,2.87
2018-12-17T13:03:55.968Z,2.67
2018-12-17T13:08:59.284Z,2.81
2018-12-17T13:14:06.623Z,3.01
2018-12-17T13:19:09.823Z,3.15
2018-12-17T13:24:13.044Z,3.02
2018-12-17T13:29:16.541Z,2.88
2018-12-17T13:34:19.721Z,2.77
2018-12-17T13:39:23.253Z,2.75
2018-12-17T13:44:26.425Z,2.77
2018-12-17T13:49:29.667Z,2.88
2018-12-17T13:54:33.011Z,2.91
2018-12-17T13:59:36.235Z,2.83
2018-12-17T14:04:39.430Z,2.68
2018-12-17T14:09:42.953Z,2.59
2018-12-17T14:14:46.239Z,2.54
2018-12-17T14:19:49.511Z,2.48
2018-12-17T14:24:52.699Z,2.43
2018-12-17T14:29:56.307Z,2.35
2018-12-17T14:34:59.679Z,2.32
2018-12-17T14:40:06.368Z,2.27
2018-12-17T14:45:09.863Z,2.25
2018-12-17T14:50:13.192Z,2.18
2018-12-17T14:55:16.502Z,2.09
2018-12-17T15:00:19.849Z,2.08
2018-12-17T15:05:23.250Z,2.08
2018-12-17T15:10:26.612Z,2.12
2018-12-17T15:15:29.786Z,2.06
2018-12-17T15:20:33.017Z,2.07
2018-12-17T15:25:36.260Z,2.11
2018-12-17T15:30:39.713Z,2.10
2018-12-17T15:35:43.349Z,2.09
2018-12-17T15:40:46.597Z,2.12
2018-12-17T15:45:50.233Z,2.14
2018-12-17T15:50:53.444Z,2.21
2018-12-17T15:55:56.652Z,2.20
2018-12-17T16:00:59.885Z,2.19
2018-12-17T16:06:08.222Z,2.26
2018-12-17T16:11:11.509Z,2.36
2018-12-17T16:16:14.726Z,2.32
2018-12-17T16:21:18.049Z,2.15
2018-12-17T16:26:21.843Z,2.11
2018-12-17T16:31:25.372Z,2.12
2018-12-17T16:36:28.723Z,2.15
2018-12-17T16:41:31.976Z,2.17
2018-12-17T16:46:35.859Z,2.12
2018-12-17T16:51:39.237Z,2.10
2018-12-17T16:56:42.448Z,2.13
2018-12-17T17:01:45.745Z,2.15
2018-12-17T17:06:49.277Z,2.18
2018-12-17T17:11:52.444Z,2.25
2018-12-17T17:16:56.245Z,2.22
2018-12-17T17:21:59.391Z,2.17
2018-12-17T17:27:02.666Z,2.17
2018-12-17T17:32:11.578Z,2.16
2018-12-17T17:37:11.705Z,2.17
2018-12-17T17:42:14.961Z,2.11
2018-12-17T17:47:18.179Z,2.18
2018-12-17T17:52:21.356Z,2.13
2018-12-17T17:57:24.640Z,2.15
2018-12-17T18:02:28.087Z,2.13
2018-12-17T18:07:31.353Z,2.17
2018-12-17T18:12:37.911Z,2.11
2018-12-17T18:17:41.140Z,2.05
2018-12-17T18:22:44.346Z,2.08
2018-12-17T18:27:48.582Z,2.05
2018-12-17T18:32:51.938Z,2.01
2018-12-17T18:37:55.136Z,1.98
2018-12-17T18:43:03.960Z,1.97
2018-12-17T18:48:08.182Z,1.98
2018-12-17T18:53:11.395Z,2.08
2018-12-17T18:58:14.663Z,2.27
2018-12-17T19:03:18.028Z,2.36
2018-12-17T19:08:21.292Z,2.37
2018-12-17T19:13:24.539Z,2.42
2018-12-17T19:18:29.072Z,2.41
2018-12-17T19:23:32.561Z,2.45
2018-12-17T19:28:35.844Z,2.32
2018-12-17T19:33:39.482Z,2.41
2018-12-17T19:38:42.777Z,2.46
2018-12-17T19:43:46.120Z,2.42
2018-12-17T19:48:49.999Z,2.33
2018-12-17T19:53:53.490Z,2.34
2018-12-17T19:58:56.974Z,2.36
2018-12-17T20:04:00.293Z,2.28
2018-12-17T20:09:05.134Z,2.13
2018-12-17T20:14:08.445Z,2.04
2018-12-17T20:19:11.670Z,2.05
2018-12-17T20:24:17.326Z,2.05
2018-12-17T20:29:26.000Z,2.13
2018-12-17T20:34:32.195Z,2.15
2018-12-17T20:39:35.423Z,2.10
2018-12-17T20:44:38.510Z,2.16
2018-12-17T20:49:41.765Z,2.12
2018-12-17T20:54:44.886Z,2.18
2018-12-17T20:59:48.181Z,2.16
2018-12-17T21:04:51.342Z,2.12
2018-12-17T21:09:55.670Z,2.10
2018-12-17T21:15:02.258Z,2.00
2018-12-17T21:20:08.105Z,1.99
2018-12-17T21:25:13.881Z,2.01
2018-12-17T21:30:17.286Z,1.99
2018-12-17T21:35:20.633Z,2.03
2018-12-17T21:40:23.846Z,2.07
2018-12-17T21:45:27.142Z,2.06
2018-12-17T21:50:30.408Z,2.09
2018-12-17T21:55:34.832Z,2.11
2018-12-17T22:00:40.226Z,2.08
2018-12-17T22:05:43.848Z,2.06
2018-12-17T22:10:47.113Z,2.05
2018-12-17T22:15:50.280Z,2.07
2018-12-17T22:20:53.577Z,2.04
2018-12-17T22:25:56.753Z,2.06
2018-12-17T22:31:00.024Z,2.07
2018-12-17T22:36:03.224Z,2.10
2018-12-17T22:41:06.386Z,2.01
2018-12-17T22:46:09.653Z,1.97
2018-12-17T22:51:12.864Z,2.00
2018-12-17T22:56:15.987Z,2.00
2018-12-17T23:01:19.159Z,2.01
2018-12-17T23:06:22.319Z,1.98
2018-12-17T23:11:36.798Z,1.97
2018-12-17T23:16:51.234Z,2.01
2018-12-17T23:21:55.129Z,1.99
2018-12-17T23:26:58.515Z,1.95
2018-12-17T23:32:01.781Z,1.93
2018-12-17T23:37:05.004Z,2.01
2018-12-17T23:42:08.170Z,2.03
2018-12-17T23:47:11.359Z,2.02
2018-12-17T23:52:15.555Z,2.02
2018-12-17T23:57:18.717Z,2.06
